sensor_id;sensor_type;location;lat;lon;timestamp;P1;durP1;ratioP1;P2;durP2;ratioP2
70426;SDS011;57872;55.432;37.248;2023-07-29T00:00:58;7.78;;;4.88;;
70426;SDS011;57872;55.432;37.248;2023-07-29T00:06:13;11.05;;;4.32;;
70426;SDS011;57872;55.432;37.248;2023-07-29T00:11:53;10.43;;;5.10;;
70426;SDS011;57872;55.432;37.248;2023-07-29T00:16:54;15.00;;;5.80;;
70426;SDS011;57872;55.432;37.248;2023-07-29T00:21:55;11.13;;;5.55;;
70426;SDS011;57872;55.432;37.248;2023-07-29T00:27:02;12.40;;;5.57;;
70426;SDS011;57872;55.432;37.248;2023-07-29T00:32:06;10.02;;;4.93;;
70426;SDS011;57872;55.432;37.248;2023-07-29T00:37:09;10.77;;;4.18;;
70426;SDS011;57872;55.432;37.248;2023-07-29T00:42:11;7.10;;;4.10;;
70426;SDS011;57872;55.432;37.248;2023-07-29T00:47:20;9.02;;;4.00;;
70426;SDS011;57872;55.432;37.248;2023-07-29T00:52:24;7.90;;;4.70;;
70426;SDS011;57872;55.432;37.248;2023-07-29T00:57:29;7.80;;;4.32;;
70426;SDS011;57872;55.432;37.248;2023-07-29T01:02:30;8.35;;;4.50;;
70426;SDS011;57872;55.432;37.248;2023-07-29T01:07:39;7.38;;;4.30;;
70426;SDS011;57872;55.432;37.248;2023-07-29T01:12:51;10.68;;;4.50;;
70426;SDS011;57872;55.432;37.248;2023-07-29T01:17:59;12.27;;;4.60;;
70426;SDS011;57872;55.432;37.248;2023-07-29T01:23:05;9.05;;;4.72;;
70426;SDS011;57872;55.432;37.248;2023-07-29T01:28:05;8.98;;;4.50;;
70426;SDS011;57872;55.432;37.248;2023-07-29T01:33:11;10.27;;;5.13;;
70426;SDS011;57872;55.432;37.248;2023-07-29T01:38:30;8.65;;;4.50;;
70426;SDS011;57872;55.432;37.248;2023-07-29T01:43:34;9.77;;;4.53;;
70426;SDS011;57872;55.432;37.248;2023-07-29T01:48:53;9.10;;;4.82;;
70426;SDS011;57872;55.432;37.248;2023-07-29T01:53:54;13.90;;;5.22;;
70426;SDS011;57872;55.432;37.248;2023-07-29T02:10:27;11.43;;;5.35;;
70426;SDS011;57872;55.432;37.248;2023-07-29T02:16:34;8.68;;;4.93;;
70426;SDS011;57872;55.432;37.248;2023-07-29T02:21:59;11.13;;;5.13;;
70426;SDS011;57872;55.432;37.248;2023-07-29T02:27:03;8.60;;;5.03;;
70426;SDS011;57872;55.432;37.248;2023-07-29T02:32:12;12.90;;;5.50;;
70426;SDS011;57872;55.432;37.248;2023-07-29T02:37:13;11.77;;;5.70;;
70426;SDS011;57872;55.432;37.248;2023-07-29T02:42:14;14.93;;;5.72;;
70426;SDS011;57872;55.432;37.248;2023-07-29T02:47:15;10.10;;;5.40;;
70426;SDS011;57872;55.432;37.248;2023-07-29T02:52:16;11.25;;;5.18;;
70426;SDS011;57872;55.432;37.248;2023-07-29T02:57:25;11.52;;;5.95;;
70426;SDS011;57872;55.432;37.248;2023-07-29T03:03:33;12.48;;;6.07;;
70426;SDS011;57872;55.432;37.248;2023-07-29T03:08:48;13.40;;;6.30;;
70426;SDS011;57872;55.432;37.248;2023-07-29T03:14:32;10.88;;;6.18;;
70426;SDS011;57872;55.432;37.248;2023-07-29T03:26:04;13.57;;;6.38;;
70426;SDS011;57872;55.432;37.248;2023-07-29T03:31:11;11.93;;;6.05;;
70426;SDS011;57872;55.432;37.248;2023-07-29T03:42:03;11.93;;;5.90;;
70426;SDS011;57872;55.432;37.248;2023-07-29T03:47:04;11.90;;;6.38;;
70426;SDS011;57872;55.432;37.248;2023-07-29T03:52:17;9.75;;;5.68;;
70426;SDS011;57872;55.432;37.248;2023-07-29T03:57:32;12.82;;;6.07;;
70426;SDS011;57872;55.432;37.248;2023-07-29T04:02:42;9.32;;;5.47;;
70426;SDS011;57872;55.432;37.248;2023-07-29T04:07:52;11.27;;;5.97;;
70426;SDS011;57872;55.432;37.248;2023-07-29T04:12:54;10.53;;;5.00;;
70426;SDS011;57872;55.432;37.248;2023-07-29T04:17:54;10.98;;;5.85;;
70426;SDS011;57872;55.432;37.248;2023-07-29T04:22:55;8.98;;;4.85;;
70426;SDS011;57872;55.432;37.248;2023-07-29T04:27:56;12.10;;;5.68;;
70426;SDS011;57872;55.432;37.248;2023-07-29T04:33:03;9.98;;;5.20;;
70426;SDS011;57872;55.432;37.248;2023-07-29T04:38:07;11.55;;;5.68;;
70426;SDS011;57872;55.432;37.248;2023-07-29T04:43:10;10.18;;;5.53;;
70426;SDS011;57872;55.432;37.248;2023-07-29T04:48:14;11.77;;;5.97;;
70426;SDS011;57872;55.432;37.248;2023-07-29T04:53:15;9.88;;;5.65;;
70426;SDS011;57872;55.432;37.248;2023-07-29T04:58:15;9.80;;;5.50;;
70426;SDS011;57872;55.432;37.248;2023-07-29T05:03:20;10.25;;;6.20;;
70426;SDS011;57872;55.432;37.248;2023-07-29T05:08:22;9.63;;;5.38;;
70426;SDS011;57872;55.432;37.248;2023-07-29T05:13:26;12.23;;;5.65;;
70426;SDS011;57872;55.432;37.248;2023-07-29T05:18:27;9.65;;;5.07;;
70426;SDS011;57872;55.432;37.248;2023-07-29T05:23:57;11.43;;;5.57;;
70426;SDS011;57872;55.432;37.248;2023-07-29T05:29:22;10.55;;;5.22;;
70426;SDS011;57872;55.432;37.248;2023-07-29T05:34:27;8.80;;;5.00;;
70426;SDS011;57872;55.432;37.248;2023-07-29T05:39:39;9.93;;;5.20;;
70426;SDS011;57872;55.432;37.248;2023-07-29T05:44:39;9.82;;;5.57;;
70426;SDS011;57872;55.432;37.248;2023-07-29T05:50:01;12.82;;;6.47;;
70426;SDS011;57872;55.432;37.248;2023-07-29T05:55:26;10.57;;;5.45;;
70426;SDS011;57872;55.432;37.248;2023-07-29T06:00:59;9.68;;;5.07;;
70426;SDS011;57872;55.432;37.248;2023-07-29T06:06:20;8.55;;;5.57;;
70426;SDS011;57872;55.432;37.248;2023-07-29T06:11:28;8.40;;;4.68;;
70426;SDS011;57872;55.432;37.248;2023-07-29T06:16:32;11.32;;;5.25;;
70426;SDS011;57872;55.432;37.248;2023-07-29T06:21:39;11.43;;;5.50;;
70426;SDS011;57872;55.432;37.248;2023-07-29T06:27:04;10.93;;;5.35;;
70426;SDS011;57872;55.432;37.248;2023-07-29T06:32:08;12.15;;;5.40;;
70426;SDS011;57872;55.432;37.248;2023-07-29T06:37:29;10.23;;;5.30;;
70426;SDS011;57872;55.432;37.248;2023-07-29T06:48:19;10.75;;;5.88;;
70426;SDS011;57872;55.432;37.248;2023-07-29T06:53:25;9.88;;;4.95;;
70426;SDS011;57872;55.432;37.248;2023-07-29T06:58:29;10.93;;;5.55;;
70426;SDS011;57872;55.432;37.248;2023-07-29T07:03:29;11.82;;;6.28;;
70426;SDS011;57872;55.432;37.248;2023-07-29T07:08:32;10.50;;;5.22;;
70426;SDS011;57872;55.432;37.248;2023-07-29T07:13:53;8.73;;;4.90;;
70426;SDS011;57872;55.432;37.248;2023-07-29T07:19:39;11.20;;;4.83;;
70426;SDS011;57872;55.432;37.248;2023-07-29T07:25:36;9.07;;;4.90;;
70426;SDS011;57872;55.432;37.248;2023-07-29T07:30:39;16.23;;;4.75;;
70426;SDS011;57872;55.432;37.248;2023-07-29T07:42:34;8.48;;;4.00;;
70426;SDS011;57872;55.432;37.248;2023-07-29T07:48:24;10.15;;;4.55;;
70426;SDS011;57872;55.432;37.248;2023-07-29T07:54:05;9.95;;;4.53;;
70426;SDS011;57872;55.432;37.248;2023-07-29T07:59:06;9.00;;;4.78;;
70426;SDS011;57872;55.432;37.248;2023-07-29T08:04:08;7.88;;;4.32;;
70426;SDS011;57872;55.432;37.248;2023-07-29T08:09:09;9.48;;;4.50;;
70426;SDS011;57872;55.432;37.248;2023-07-29T08:14:10;7.18;;;3.70;;
70426;SDS011;57872;55.432;37.248;2023-07-29T08:19:14;9.00;;;4.13;;
70426;SDS011;57872;55.432;37.248;2023-07-29T08:24:15;7.03;;;4.15;;
70426;SDS011;57872;55.432;37.248;2023-07-29T08:29:24;9.32;;;3.90;;
70426;SDS011;57872;55.432;37.248;2023-07-29T08:35:09;9.80;;;4.25;;
70426;SDS011;57872;55.432;37.248;2023-07-29T08:40:39;9.05;;;3.97;;
70426;SDS011;57872;55.432;37.248;2023-07-29T08:46:10;8.73;;;4.20;;
70426;SDS011;57872;55.432;37.248;2023-07-29T08:51:15;9.27;;;3.72;;
70426;SDS011;57872;55.432;37.248;2023-07-29T08:56:21;7.20;;;3.40;;
70426;SDS011;57872;55.432;37.248;2023-07-29T09:01:25;7.55;;;3.78;;
70426;SDS011;57872;55.432;37.248;2023-07-29T09:19:19;9.95;;;3.30;;
70426;SDS011;57872;55.432;37.248;2023-07-29T09:24:29;7.53;;;3.33;;
70426;SDS011;57872;55.432;37.248;2023-07-29T09:29:35;6.97;;;2.85;;
70426;SDS011;57872;55.432;37.248;2023-07-29T09:34:40;8.43;;;3.42;;
70426;SDS011;57872;55.432;37.248;2023-07-29T09:39:49;8.40;;;3.60;;
70426;SDS011;57872;55.432;37.248;2023-07-29T09:44:53;6.78;;;3.38;;
70426;SDS011;57872;55.432;37.248;2023-07-29T09:49:54;8.65;;;3.40;;
70426;SDS011;57872;55.432;37.248;2023-07-29T09:54:55;6.35;;;3.58;;
70426;SDS011;57872;55.432;37.248;2023-07-29T09:59:57;8.00;;;3.25;;
70426;SDS011;57872;55.432;37.248;2023-07-29T10:04:58;9.18;;;3.75;;
70426;SDS011;57872;55.432;37.248;2023-07-29T10:10:02;8.30;;;4.00;;
70426;SDS011;57872;55.432;37.248;2023-07-29T10:15:05;9.63;;;4.00;;
70426;SDS011;57872;55.432;37.248;2023-07-29T10:20:07;6.70;;;3.57;;
70426;SDS011;57872;55.432;37.248;2023-07-29T10:25:29;6.53;;;3.53;;
70426;SDS011;57872;55.432;37.248;2023-07-29T10:30:36;8.95;;;3.90;;
70426;SDS011;57872;55.432;37.248;2023-07-29T10:35:40;9.20;;;3.92;;
70426;SDS011;57872;55.432;37.248;2023-07-29T10:40:50;9.60;;;4.45;;
70426;SDS011;57872;55.432;37.248;2023-07-29T10:45:55;9.38;;;3.70;;
70426;SDS011;57872;55.432;37.248;2023-07-29T10:56:43;8.88;;;3.97;;
70426;SDS011;57872;55.432;37.248;2023-07-29T11:01:50;7.47;;;3.50;;
70426;SDS011;57872;55.432;37.248;2023-07-29T11:17:55;8.73;;;4.28;;
70426;SDS011;57872;55.432;37.248;2023-07-29T11:22:58;8.68;;;3.65;;
70426;SDS011;57872;55.432;37.248;2023-07-29T11:28:06;10.15;;;4.28;;
70426;SDS011;57872;55.432;37.248;2023-07-29T11:33:13;8.43;;;3.90;;
70426;SDS011;57872;55.432;37.248;2023-07-29T11:38:18;7.38;;;3.83;;
70426;SDS011;57872;55.432;37.248;2023-07-29T11:43:20;8.27;;;3.85;;
70426;SDS011;57872;55.432;37.248;2023-07-29T11:48:33;8.93;;;4.30;;
70426;SDS011;57872;55.432;37.248;2023-07-29T11:53:39;9.20;;;4.05;;
70426;SDS011;57872;55.432;37.248;2023-07-29T11:58:44;8.25;;;4.80;;
70426;SDS011;57872;55.432;37.248;2023-07-29T12:04:02;10.10;;;4.47;;
70426;SDS011;57872;55.432;37.248;2023-07-29T12:09:03;9.38;;;4.63;;
70426;SDS011;57872;55.432;37.248;2023-07-29T12:14:06;8.85;;;5.07;;
70426;SDS011;57872;55.432;37.248;2023-07-29T12:19:13;10.65;;;5.20;;
70426;SDS011;57872;55.432;37.248;2023-07-29T12:24:18;8.38;;;3.90;;
70426;SDS011;57872;55.432;37.248;2023-07-29T12:29:22;8.70;;;4.35;;
70426;SDS011;57872;55.432;37.248;2023-07-29T12:34:24;8.88;;;4.40;;
70426;SDS011;57872;55.432;37.248;2023-07-29T12:39:27;11.48;;;4.45;;
70426;SDS011;57872;55.432;37.248;2023-07-29T12:44:33;9.00;;;4.85;;
70426;SDS011;57872;55.432;37.248;2023-07-29T12:49:34;10.00;;;4.80;;
70426;SDS011;57872;55.432;37.248;2023-07-29T12:54:36;10.50;;;4.35;;
70426;SDS011;57872;55.432;37.248;2023-07-29T12:59:36;10.35;;;4.47;;
70426;SDS011;57872;55.432;37.248;2023-07-29T13:04:37;9.20;;;4.22;;
70426;SDS011;57872;55.432;37.248;2023-07-29T13:09:38;10.13;;;4.20;;
70426;SDS011;57872;55.432;37.248;2023-07-29T13:14:39;8.90;;;4.00;;
70426;SDS011;57872;55.432;37.248;2023-07-29T13:19:40;8.52;;;4.18;;
70426;SDS011;57872;55.432;37.248;2023-07-29T13:24:41;8.57;;;3.95;;
70426;SDS011;57872;55.432;37.248;2023-07-29T13:29:58;8.50;;;3.70;;
70426;SDS011;57872;55.432;37.248;2023-07-29T13:35:04;7.45;;;3.75;;
70426;SDS011;57872;55.432;37.248;2023-07-29T13:40:39;8.88;;;3.50;;
70426;SDS011;57872;55.432;37.248;2023-07-29T13:46:20;9.75;;;3.90;;
70426;SDS011;57872;55.432;37.248;2023-07-29T13:51:46;8.98;;;3.83;;
70426;SDS011;57872;55.432;37.248;2023-07-29T13:57:36;7.47;;;3.75;;
70426;SDS011;57872;55.432;37.248;2023-07-29T14:03:30;10.65;;;3.72;;
70426;SDS011;57872;55.432;37.248;2023-07-29T14:09:16;8.90;;;3.65;;
70426;SDS011;57872;55.432;37.248;2023-07-29T14:21:10;9.82;;;3.65;;
70426;SDS011;57872;55.432;37.248;2023-07-29T14:27:02;7.47;;;3.85;;
70426;SDS011;57872;55.432;37.248;2023-07-29T14:38:44;8.23;;;3.90;;
70426;SDS011;57872;55.432;37.248;2023-07-29T14:43:51;9.57;;;4.20;;
70426;SDS011;57872;55.432;37.248;2023-07-29T14:49:03;6.43;;;3.80;;
70426;SDS011;57872;55.432;37.248;2023-07-29T14:54:48;9.93;;;3.83;;
70426;SDS011;57872;55.432;37.248;2023-07-29T15:00:24;8.02;;;3.47;;
70426;SDS011;57872;55.432;37.248;2023-07-29T15:05:28;8.02;;;3.55;;
70426;SDS011;57872;55.432;37.248;2023-07-29T15:10:29;8.90;;;3.83;;
70426;SDS011;57872;55.432;37.248;2023-07-29T15:15:30;10.65;;;4.43;;
70426;SDS011;57872;55.432;37.248;2023-07-29T15:20:36;8.77;;;4.32;;
70426;SDS011;57872;55.432;37.248;2023-07-29T15:26:03;11.52;;;4.43;;
70426;SDS011;57872;55.432;37.248;2023-07-29T15:31:10;8.32;;;3.83;;
70426;SDS011;57872;55.432;37.248;2023-07-29T15:36:28;10.65;;;4.07;;
70426;SDS011;57872;55.432;37.248;2023-07-29T15:41:32;12.13;;;3.90;;
70426;SDS011;57872;55.432;37.248;2023-07-29T15:46:34;7.82;;;3.75;;
70426;SDS011;57872;55.432;37.248;2023-07-29T15:51:44;8.10;;;4.07;;
70426;SDS011;57872;55.432;37.248;2023-07-29T15:56:45;8.45;;;4.03;;
70426;SDS011;57872;55.432;37.248;2023-07-29T16:08:16;8.35;;;3.92;;
70426;SDS011;57872;55.432;37.248;2023-07-29T16:13:01;7.90;;;4.03;;
70426;SDS011;57872;55.432;37.248;2023-07-29T16:37:30;9.00;;;3.63;;
70426;SDS011;57872;55.432;37.248;2023-07-29T16:43:15;8.10;;;4.28;;
70426;SDS011;57872;55.432;37.248;2023-07-29T16:49:15;11.35;;;4.75;;
70426;SDS011;57872;55.432;37.248;2023-07-29T16:54:17;8.40;;;4.40;;
70426;SDS011;57872;55.432;37.248;2023-07-29T17:10:18;8.50;;;4.40;;
70426;SDS011;57872;55.432;37.248;2023-07-29T17:15:24;9.88;;;4.53;;
70426;SDS011;57872;55.432;37.248;2023-07-29T17:20:59;9.40;;;4.05;;
70426;SDS011;57872;55.432;37.248;2023-07-29T17:26:26;9.63;;;5.70;;
70426;SDS011;57872;55.432;37.248;2023-07-29T17:31:38;11.97;;;6.50;;
70426;SDS011;57872;55.432;37.248;2023-07-29T17:37:21;12.30;;;6.20;;
70426;SDS011;57872;55.432;37.248;2023-07-29T17:42:59;12.48;;;6.70;;
70426;SDS011;57872;55.432;37.248;2023-07-29T17:48:57;14.43;;;6.35;;
70426;SDS011;57872;55.432;37.248;2023-07-29T17:54:41;13.05;;;6.25;;
70426;SDS011;57872;55.432;37.248;2023-07-29T18:00:23;12.00;;;6.15;;
70426;SDS011;57872;55.432;37.248;2023-07-29T18:05:29;12.27;;;6.20;;
70426;SDS011;57872;55.432;37.248;2023-07-29T18:16:45;11.20;;;6.18;;
70426;SDS011;57872;55.432;37.248;2023-07-29T18:21:49;10.70;;;6.20;;
70426;SDS011;57872;55.432;37.248;2023-07-29T18:26:50;11.55;;;6.28;;
70426;SDS011;57872;55.432;37.248;2023-07-29T18:31:51;16.35;;;6.20;;
70426;SDS011;57872;55.432;37.248;2023-07-29T18:36:56;10.07;;;6.18;;
70426;SDS011;57872;55.432;37.248;2023-07-29T18:41:57;12.82;;;5.90;;
70426;SDS011;57872;55.432;37.248;2023-07-29T18:46:58;10.25;;;5.97;;
70426;SDS011;57872;55.432;37.248;2023-07-29T18:51:59;12.50;;;6.13;;
70426;SDS011;57872;55.432;37.248;2023-07-29T18:56:59;10.23;;;6.13;;
70426;SDS011;57872;55.432;37.248;2023-07-29T19:02:03;10.40;;;6.75;;
70426;SDS011;57872;55.432;37.248;2023-07-29T19:07:09;10.32;;;7.00;;
70426;SDS011;57872;55.432;37.248;2023-07-29T19:12:15;13.27;;;7.10;;
70426;SDS011;57872;55.432;37.248;2023-07-29T19:17:31;16.52;;;6.22;;
70426;SDS011;57872;55.432;37.248;2023-07-29T19:22:59;12.48;;;6.88;;
70426;SDS011;57872;55.432;37.248;2023-07-29T19:28:09;11.35;;;7.28;;
70426;SDS011;57872;55.432;37.248;2023-07-29T19:33:27;10.75;;;7.40;;
70426;SDS011;57872;55.432;37.248;2023-07-29T19:44:41;12.27;;;7.57;;
70426;SDS011;57872;55.432;37.248;2023-07-29T19:49:42;14.82;;;8.73;;
70426;SDS011;57872;55.432;37.248;2023-07-29T19:54:43;14.23;;;9.00;;
70426;SDS011;57872;55.432;37.248;2023-07-29T19:59:44;16.13;;;9.05;;
70426;SDS011;57872;55.432;37.248;2023-07-29T20:04:49;16.10;;;9.77;;
70426;SDS011;57872;55.432;37.248;2023-07-29T20:09:50;15.25;;;10.20;;
70426;SDS011;57872;55.432;37.248;2023-07-29T20:14:51;17.08;;;10.25;;
70426;SDS011;57872;55.432;37.248;2023-07-29T20:19:55;15.10;;;9.13;;
70426;SDS011;57872;55.432;37.248;2023-07-29T20:24:59;14.55;;;9.32;;
70426;SDS011;57872;55.432;37.248;2023-07-29T20:30:05;16.50;;;9.00;;
70426;SDS011;57872;55.432;37.248;2023-07-29T20:35:19;16.17;;;9.43;;
70426;SDS011;57872;55.432;37.248;2023-07-29T20:40:29;17.17;;;10.15;;
70426;SDS011;57872;55.432;37.248;2023-07-29T20:45:51;17.63;;;9.95;;
70426;SDS011;57872;55.432;37.248;2023-07-29T20:56:59;16.05;;;10.43;;
70426;SDS011;57872;55.432;37.248;2023-07-29T21:02:02;18.75;;;10.82;;
70426;SDS011;57872;55.432;37.248;2023-07-29T21:07:12;15.30;;;9.88;;
70426;SDS011;57872;55.432;37.248;2023-07-29T21:12:19;12.90;;;9.02;;
70426;SDS011;57872;55.432;37.248;2023-07-29T21:17:37;18.45;;;10.60;;
70426;SDS011;57872;55.432;37.248;2023-07-29T21:22:38;18.55;;;10.02;;
70426;SDS011;57872;55.432;37.248;2023-07-29T21:41:54;15.48;;;10.05;;
70426;SDS011;57872;55.432;37.248;2023-07-29T21:48:05;16.13;;;8.60;;
70426;SDS011;57872;55.432;37.248;2023-07-29T21:53:37;17.67;;;10.25;;
70426;SDS011;57872;55.432;37.248;2023-07-29T21:58:43;16.55;;;9.10;;
70426;SDS011;57872;55.432;37.248;2023-07-29T22:04:18;15.52;;;8.45;;
70426;SDS011;57872;55.432;37.248;2023-07-29T22:09:46;17.02;;;8.45;;
70426;SDS011;57872;55.432;37.248;2023-07-29T22:15:19;14.73;;;8.57;;
70426;SDS011;57872;55.432;37.248;2023-07-29T22:20:25;16.70;;;9.70;;
70426;SDS011;57872;55.432;37.248;2023-07-29T22:25:27;14.85;;;9.10;;
70426;SDS011;57872;55.432;37.248;2023-07-29T22:30:27;17.75;;;9.52;;
70426;SDS011;57872;55.432;37.248;2023-07-29T22:35:28;19.08;;;9.07;;
70426;SDS011;57872;55.432;37.248;2023-07-29T22:40:35;14.57;;;8.88;;
70426;SDS011;57872;55.432;37.248;2023-07-29T22:45:35;15.68;;;9.15;;
70426;SDS011;57872;55.432;37.248;2023-07-29T22:50:36;16.73;;;9.63;;
70426;SDS011;57872;55.432;37.248;2023-07-29T22:56:01;16.95;;;10.48;;
70426;SDS011;57872;55.432;37.248;2023-07-29T23:01:27;15.48;;;9.77;;
70426;SDS011;57872;55.432;37.248;2023-07-29T23:06:54;16.30;;;9.23;;
70426;SDS011;57872;55.432;37.248;2023-07-29T23:11:58;18.65;;;8.65;;
70426;SDS011;57872;55.432;37.248;2023-07-29T23:17:04;13.43;;;7.78;;
70426;SDS011;57872;55.432;37.248;2023-07-29T23:22:05;12.38;;;7.43;;
70426;SDS011;57872;55.432;37.248;2023-07-29T23:27:06;13.52;;;8.20;;
70426;SDS011;57872;55.432;37.248;2023-07-29T23:32:07;16.20;;;8.82;;
70426;SDS011;57872;55.432;37.248;2023-07-29T23:37:08;13.75;;;7.93;;
70426;SDS011;57872;55.432;37.248;2023-07-29T23:42:14;13.88;;;8.00;;
70426;SDS011;57872;55.432;37.248;2023-07-29T23:47:23;15.50;;;8.88;;
70426;SDS011;57872;55.432;37.248;2023-07-29T23:57:33;15.25;;;8.50;;
